Quinsam — VY6800 — position and weather

sailwx.info

Track history (hours):
 
Tides and Currents Weather Stations Pressure Air Temp Water Temp Dewpoint Dewpoint Depression Visibility Wind Speed Wind Dir Waves Ship Positions

Quinsam

Last reported at 2017-Jun-25 20:21 UTC. Time now 2017-Jun-25 20:57 UTC.
Position N 49°10' W 123°53'.

Length 88 m; draft 1.5 m.

Type: Ship. MMSI: 316001266.

Date/timePositionNaut miles runAvg speedWind from/ knotsBaromVisibWave heightAir tempDewpointWater temp
2017-Jun-25 20:21N 49°10' W 123°53'0 0.1
2017-Jun-25 19:05N 49°10' W 123°53'111.0
2017-Jun-25 18:59N 49°10' W 123°55'0 0.2
2017-Jun-25 17:46N 49°10' W 123°56'0 0.0
2017-Jun-24 19:07N 49°10' W 123°56'0 0.2
2017-Jun-24 17:21N 49°10' W 123°55'2 3.2
2017-Jun-24 16:45N 49°11' W 123°52'0 0.0
2017-Jun-24 06:18N 49°11' W 123°53'2 6.5
2017-Jun-24 05:58N 49°10' W 123°56'1 2.0
2017-Jun-24 05:18N 49°10' W 123°54'2 1.8
2017-Jun-24 04:25N 49°11' W 123°52'2 2.4
2017-Jun-24 03:42N 49°10' W 123°54'2 2.7
2017-Jun-24 03:04N 49°11' W 123°52'0 0.0
2017-Jun-24 02:46N 49°11' W 123°52'3 7.5
2017-Jun-24 02:23N 49°10' W 123°56'2 4.4
2017-Jun-24 01:52N 49°11' W 123°52'0 0.3
2017-Jun-24 01:30N 49°11' W 123°52'2 3.1
2017-Jun-24 00:50N 49°10' W 123°55'3 1.5
2017-Jun-23 23:09N 49°11' W 123°52'3 1.6
2017-Jun-23 21:31N 49°10' W 123°55'012.4
2017-Jun-23 21:30N 49°10' W 123°56'1 0.6
2017-Jun-23 19:12N 49°11' W 123°54'1 0.5
2017-Jun-23 16:42N 49°11' W 123°52'210.8
2017-Jun-23 16:28N 49°10' W 123°55'0 0.1
2017-Jun-23 13:56N 49°10' W 123°56'3 0.4
2017-Jun-23 06:16N 49°11' W 123°52'3 1.2
2017-Jun-23 03:57N 49°10' W 123°56'3 5.2
2017-Jun-23 03:26N 49°11' W 123°52'1 0.1
2017-Jun-22 18:42N 49°11' W 123°54'1 3.0
2017-Jun-22 18:13N 49°11' W 123°52'2 8.9
2017-Jun-22 18:00N 49°10' W 123°54'1 0.9
2017-Jun-22 17:24N 49°11' W 123°54'2 3.7
2017-Jun-22 16:57N 49°11' W 123°52'3 3.7
2017-Jun-22 16:12N 49°10' W 123°56'0 0.0
2017-Jun-22 15:16N 49°10' W 123°56'0 0.4
2017-Jun-22 14:52N 49°10' W 123°55'0 0.1
2017-Jun-22 13:59N 49°10' W 123°55'2 3.3
2017-Jun-22 13:21N 49°11' W 123°52'2 0.3
2017-Jun-22 05:58N 49°10' W 123°56'0 0.0
2017-Jun-22 05:19N 49°10' W 123°56'3 3.4
2017-Jun-22 04:33N 49°11' W 123°52'3 4.7
2017-Jun-22 03:59N 49°10' W 123°56'3 5.1
2017-Jun-22 03:25N 49°11' W 123°52'1 1.1
2017-Jun-22 02:57N 49°11' W 123°52'2 1.7
2017-Jun-22 01:34N 49°10' W 123°56'0 0.0
2017-Jun-21 17:56N 49°10' W 123°56'  
2017-Jun-19 13:56N 49°10' W 123°56'0 0.0
2017-Jun-17 20:17N 49°10' W 123°56'1 0.2
2017-Jun-17 14:13N 49°11' W 123°54'  
Track history (hours):
 
Tides and Currents Weather Stations Pressure Air Temp Water Temp Dewpoint Dewpoint Depression Visibility Wind Speed Wind Dir Waves Ship Positions

Quinsam

Last reported at 2017-Jun-25 20:21 UTC. Time now 2017-Jun-25 20:57 UTC.
Position N 49°10' W 123°53'.

Length 88 m; draft 1.5 m.

Type: Ship. MMSI: 316001266.

Date/timePositionNaut miles runAvg speedWind from/ knotsBaromVisibWave heightAir tempDewpointWater temp
2017-Jun-25 20:21N 49°10' W 123°53'0 0.1
2017-Jun-25 19:05N 49°10' W 123°53'111.0
2017-Jun-25 18:59N 49°10' W 123°55'0 0.2
2017-Jun-25 17:46N 49°10' W 123°56'0 0.0
2017-Jun-24 19:07N 49°10' W 123°56'0 0.2
2017-Jun-24 17:21N 49°10' W 123°55'2 3.2
2017-Jun-24 16:45N 49°11' W 123°52'0 0.0
2017-Jun-24 06:18N 49°11' W 123°53'2 6.5
2017-Jun-24 05:58N 49°10' W 123°56'1 2.0
2017-Jun-24 05:18N 49°10' W 123°54'2 1.8
2017-Jun-24 04:25N 49°11' W 123°52'2 2.4
2017-Jun-24 03:42N 49°10' W 123°54'2 2.7
2017-Jun-24 03:04N 49°11' W 123°52'0 0.0
2017-Jun-24 02:46N 49°11' W 123°52'3 7.5
2017-Jun-24 02:23N 49°10' W 123°56'2 4.4
2017-Jun-24 01:52N 49°11' W 123°52'0 0.3
2017-Jun-24 01:30N 49°11' W 123°52'2 3.1
2017-Jun-24 00:50N 49°10' W 123°55'3 1.5
2017-Jun-23 23:09N 49°11' W 123°52'3 1.6
2017-Jun-23 21:31N 49°10' W 123°55'012.4
2017-Jun-23 21:30N 49°10' W 123°56'1 0.6
2017-Jun-23 19:12N 49°11' W 123°54'1 0.5
2017-Jun-23 16:42N 49°11' W 123°52'210.8
2017-Jun-23 16:28N 49°10' W 123°55'0 0.1
2017-Jun-23 13:56N 49°10' W 123°56'3 0.4
2017-Jun-23 06:16N 49°11' W 123°52'3 1.2
2017-Jun-23 03:57N 49°10' W 123°56'3 5.2
2017-Jun-23 03:26N 49°11' W 123°52'1 0.1
2017-Jun-22 18:42N 49°11' W 123°54'1 3.0
2017-Jun-22 18:13N 49°11' W 123°52'2 8.9
2017-Jun-22 18:00N 49°10' W 123°54'1 0.9
2017-Jun-22 17:24N 49°11' W 123°54'2 3.7
2017-Jun-22 16:57N 49°11' W 123°52'3 3.7
2017-Jun-22 16:12N 49°10' W 123°56'0 0.0
2017-Jun-22 15:16N 49°10' W 123°56'0 0.4
2017-Jun-22 14:52N 49°10' W 123°55'0 0.1
2017-Jun-22 13:59N 49°10' W 123°55'2 3.3
2017-Jun-22 13:21N 49°11' W 123°52'2 0.3
2017-Jun-22 05:58N 49°10' W 123°56'0 0.0
2017-Jun-22 05:19N 49°10' W 123°56'3 3.4
2017-Jun-22 04:33N 49°11' W 123°52'3 4.7
2017-Jun-22 03:59N 49°10' W 123°56'3 5.1
2017-Jun-22 03:25N 49°11' W 123°52'1 1.1
2017-Jun-22 02:57N 49°11' W 123°52'2 1.7
2017-Jun-22 01:34N 49°10' W 123°56'0 0.0
2017-Jun-21 17:56N 49°10' W 123°56'  
2017-Jun-19 13:56N 49°10' W 123°56'0 0.0
2017-Jun-17 20:17N 49°10' W 123°56'1 0.2
2017-Jun-17 14:13N 49°11' W 123°54'  

Dump ship's entire track history